createdAt,value
2019-06-01T00:00:20.548Z,0.00
2019-06-01T00:01:20.453Z,0.00
2019-06-01T00:02:20.379Z,0.00
2019-06-01T00:03:20.274Z,0.00
2019-06-01T00:04:20.172Z,0.00
2019-06-01T00:05:20.084Z,0.00
2019-06-01T00:06:19.985Z,0.00
2019-06-01T00:07:19.909Z,0.00
2019-06-01T00:08:19.799Z,0.00
2019-06-01T00:09:19.706Z,0.00
2019-06-01T00:10:19.610Z,0.00
2019-06-01T00:11:19.518Z,0.00
2019-06-01T00:12:19.437Z,0.00
2019-06-01T00:13:19.336Z,0.00
2019-06-01T00:14:19.240Z,0.00
2019-06-01T00:15:19.144Z,0.00
2019-06-01T00:16:19.052Z,0.00
2019-06-01T00:17:18.972Z,0.00
2019-06-01T00:18:18.861Z,0.00
2019-06-01T00:19:18.770Z,0.00
2019-06-01T00:20:18.679Z,0.00
2019-06-01T00:21:18.581Z,0.00
2019-06-01T00:22:18.501Z,0.00
2019-06-01T00:23:18.396Z,0.00
2019-06-01T00:24:18.302Z,0.00
2019-06-01T00:25:18.207Z,0.00
2019-06-01T00:26:18.112Z,0.00
2019-06-01T00:27:18.024Z,0.00
2019-06-01T00:28:17.938Z,0.00
2019-06-01T00:29:17.829Z,0.00
2019-06-01T00:30:26.556Z,0.00
2019-06-01T00:31:17.645Z,0.00
2019-06-01T00:32:17.554Z,0.00
2019-06-01T00:33:17.469Z,0.00
2019-06-01T00:34:17.366Z,0.00
2019-06-01T00:35:17.269Z,0.00
2019-06-01T00:36:17.175Z,0.00
2019-06-01T00:37:17.080Z,0.00
2019-06-01T00:38:17.005Z,0.00
2019-06-01T00:39:16.894Z,0.00
2019-06-01T00:40:16.806Z,0.00
2019-06-01T00:41:16.706Z,0.00
2019-06-01T00:42:16.612Z,0.00
2019-06-01T00:43:16.639Z,0.00
2019-06-01T00:44:16.426Z,0.00
2019-06-01T00:45:16.329Z,0.00
2019-06-01T00:46:16.248Z,0.00
2019-06-01T00:47:16.144Z,0.00
2019-06-01T00:48:16.063Z,0.00
2019-06-01T00:49:15.954Z,0.00
2019-06-01T00:50:15.971Z,0.00
2019-06-01T00:51:15.767Z,0.00
2019-06-01T00:52:15.673Z,0.00
2019-06-01T00:53:15.593Z,0.00
2019-06-01T00:54:15.485Z,0.00
2019-06-01T00:55:15.393Z,0.00
2019-06-01T00:56:15.297Z,0.00
2019-06-01T00:57:15.304Z,0.00
2019-06-01T00:58:15.123Z,0.00
2019-06-01T00:59:15.016Z,0.00
2019-06-01T01:00:14.922Z,0.00
2019-06-01T01:01:14.826Z,0.00
2019-06-01T01:02:14.742Z,0.00
2019-06-01T01:03:14.719Z,0.00
2019-06-01T01:04:14.650Z,0.00
2019-06-01T01:05:14.449Z,0.00
2019-06-01T01:06:14.359Z,0.00
2019-06-01T01:07:14.263Z,0.00
2019-06-01T01:08:14.175Z,0.00
2019-06-01T01:09:14.090Z,0.00
2019-06-01T01:10:13.981Z,0.00
2019-06-01T01:11:13.987Z,0.00
2019-06-01T01:12:13.791Z,0.00
2019-06-01T01:13:13.700Z,0.00
2019-06-01T01:14:13.618Z,0.00
2019-06-01T01:15:13.516Z,0.00
2019-06-01T01:16:13.417Z,0.00
2019-06-01T01:17:13.334Z,0.00
2019-06-01T01:18:13.327Z,0.00
2019-06-01T01:19:13.146Z,0.00
2019-06-01T01:20:13.038Z,0.00
2019-06-01T01:21:12.944Z,0.00
2019-06-01T01:22:12.851Z,0.00
2019-06-01T01:23:12.756Z,0.00
2019-06-01T01:24:13.134Z,0.00
2019-06-01T01:25:12.691Z,0.00
2019-06-01T01:26:12.480Z,0.00
2019-06-01T01:27:12.380Z,0.00
2019-06-01T01:28:12.287Z,0.00
2019-06-01T01:29:12.205Z,0.00
2019-06-01T01:30:12.097Z,0.00
2019-06-01T01:31:14.206Z,0.00
2019-06-01T01:32:12.016Z,0.00
2019-06-01T01:33:11.818Z,0.00
2019-06-01T01:34:11.737Z,0.00
2019-06-01T01:35:11.627Z,0.00
2019-06-01T01:36:11.579Z,0.00
2019-06-01T01:37:11.439Z,0.00
2019-06-01T01:38:11.345Z,0.00
2019-06-01T01:39:11.371Z,0.00
2019-06-01T01:40:11.157Z,0.00
2019-06-01T01:41:11.062Z,0.00
2019-06-01T01:42:10.969Z,0.00
2019-06-01T01:43:10.875Z,0.00
2019-06-01T01:44:10.797Z,0.00
2019-06-01T01:45:10.686Z,0.00
2019-06-01T01:46:10.697Z,0.00
2019-06-01T01:47:10.497Z,0.00
2019-06-01T01:48:10.410Z,0.00
2019-06-01T01:49:10.322Z,0.00
2019-06-01T01:50:10.216Z,0.00
2019-06-01T01:51:10.121Z,0.00
2019-06-01T01:52:10.150Z,0.00
2019-06-01T01:53:09.932Z,0.00
2019-06-01T01:54:09.854Z,0.00
2019-06-01T01:55:09.752Z,0.00
2019-06-01T01:56:09.655Z,0.00
2019-06-01T01:57:09.557Z,0.00
2019-06-01T01:58:09.463Z,0.00
2019-06-01T01:59:09.388Z,0.00
2019-06-01T02:00:09.375Z,0.00
2019-06-01T02:01:21.512Z,0.00
2019-06-01T02:02:09.087Z,0.00
2019-06-01T02:03:08.992Z,0.00
2019-06-01T02:04:08.914Z,0.00
2019-06-01T02:05:08.804Z,0.00
2019-06-01T02:06:08.711Z,0.00
2019-06-01T02:07:08.616Z,0.00
2019-06-01T02:08:08.524Z,0.00
2019-06-01T02:09:08.441Z,0.00
2019-06-01T02:10:08.333Z,0.00
2019-06-01T02:11:08.241Z,0.00
2019-06-01T02:12:08.146Z,0.00
2019-06-01T02:13:08.051Z,0.00
2019-06-01T02:14:07.957Z,0.00
2019-06-01T02:15:07.877Z,0.00
2019-06-01T02:16:07.769Z,0.00
2019-06-01T02:17:07.676Z,0.00
2019-06-01T02:18:07.582Z,0.00
2019-06-01T02:19:07.491Z,0.00
2019-06-01T02:20:07.407Z,0.00
2019-06-01T02:21:07.296Z,0.00
2019-06-01T02:22:07.205Z,0.00
2019-06-01T02:23:07.115Z,0.00
2019-06-01T02:24:07.019Z,0.00
2019-06-01T02:25:06.935Z,4.00
2019-06-01T02:26:06.828Z,4.00
2019-06-01T02:27:06.733Z,4.00
2019-06-01T02:28:06.654Z,4.00
2019-06-01T02:29:06.544Z,0.00
2019-06-01T02:30:06.466Z,4.00
2019-06-01T02:31:06.358Z,4.00
2019-06-01T02:32:06.733Z,8.00
2019-06-01T02:33:06.169Z,4.00
2019-06-01T02:34:06.328Z,4.00
2019-06-01T02:35:05.995Z,8.00
2019-06-01T02:36:05.885Z,8.00
2019-06-01T02:37:05.800Z,12.00
2019-06-01T02:38:06.028Z,12.00
2019-06-01T02:39:05.607Z,12.00
2019-06-01T02:40:05.675Z,16.00
2019-06-01T02:41:05.819Z,16.00
2019-06-01T02:42:05.585Z,20.00
2019-06-01T02:43:06.587Z,20.00
2019-06-01T02:44:06.324Z,24.00
2019-06-01T02:45:05.800Z,28.00
2019-06-01T02:46:07.162Z,28.00
2019-06-01T02:47:06.374Z,36.00
2019-06-01T02:48:06.315Z,40.00
2019-06-01T02:49:06.131Z,48.00
2019-06-01T02:50:06.404Z,52.00
2019-06-01T02:51:05.507Z,56.00
2019-06-01T02:52:05.436Z,64.00
2019-06-01T02:53:04.283Z,72.00
2019-06-01T02:54:04.226Z,84.00
2019-06-01T02:55:04.647Z,88.00
2019-06-01T02:56:04.347Z,100.00
2019-06-01T02:57:04.166Z,108.00
2019-06-01T02:58:04.381Z,120.00
2019-06-01T02:59:04.443Z,132.00
2019-06-01T03:00:04.926Z,144.00
2019-06-01T03:01:05.128Z,156.00
2019-06-01T03:02:08.755Z,172.00
2019-06-01T03:03:03.338Z,188.00
2019-06-01T03:04:03.423Z,204.00
2019-06-01T03:05:03.297Z,224.00
2019-06-01T03:06:03.483Z,240.00
2019-06-01T03:07:03.768Z,260.00
2019-06-01T03:08:03.445Z,280.00
2019-06-01T03:09:03.828Z,304.00
2019-06-01T03:10:03.116Z,324.00
2019-06-01T03:11:03.773Z,352.00
2019-06-01T03:12:02.525Z,372.00
2019-06-01T03:13:02.404Z,396.00
2019-06-01T03:14:02.486Z,424.00
2019-06-01T03:15:02.628Z,452.00
2019-06-01T03:16:03.447Z,480.00
2019-06-01T03:17:02.095Z,508.00
2019-06-01T03:18:01.925Z,544.00
2019-06-01T03:19:02.074Z,576.00
2019-06-01T03:20:02.893Z,608.00
2019-06-01T03:21:01.719Z,644.00
2019-06-01T03:22:03.734Z,676.00
2019-06-01T03:23:01.750Z,712.00
2019-06-01T03:24:01.884Z,744.00
2019-06-01T03:25:02.090Z,780.00
2019-06-01T03:26:02.066Z,812.00
2019-06-01T03:27:02.905Z,844.00
2019-06-01T03:28:02.079Z,884.00
2019-06-01T03:29:03.219Z,916.00
2019-06-01T03:30:00.793Z,952.00
2019-06-01T03:31:01.249Z,984.00
2019-06-01T03:32:19.178Z,1024.00
2019-06-01T03:33:01.187Z,1064.00
2019-06-01T03:34:01.483Z,1104.00
2019-06-01T03:35:00.567Z,1140.00
2019-06-01T03:36:00.750Z,1176.00
2019-06-01T03:37:00.982Z,1212.00
2019-06-01T03:38:00.850Z,1244.00
2019-06-01T03:39:00.016Z,1280.00
2019-06-01T03:40:01.052Z,1316.00
2019-06-01T03:40:59.990Z,1352.00
2019-06-01T03:42:00.941Z,1388.00
2019-06-01T03:43:00.177Z,1420.00
2019-06-01T03:44:00.424Z,1456.00
2019-06-01T03:44:59.677Z,1496.00
2019-06-01T03:46:00.493Z,1536.00
2019-06-01T03:46:59.191Z,1572.00
2019-06-01T03:48:00.404Z,1608.00
2019-06-01T03:48:59.001Z,1644.00
2019-06-01T03:49:58.906Z,1676.00
2019-06-01T03:50:58.827Z,1712.00
2019-06-01T03:51:58.823Z,1744.00
2019-06-01T03:52:58.623Z,1772.00
2019-06-01T03:53:58.550Z,1800.00
2019-06-01T03:54:58.438Z,1836.00
2019-06-01T03:55:58.368Z,1872.00
2019-06-01T03:56:58.247Z,1904.00
2019-06-01T03:57:58.153Z,1936.00
2019-06-01T03:58:58.161Z,1976.00
2019-06-01T03:59:57.966Z,2012.00
2019-06-01T04:00:57.884Z,2044.00
2019-06-01T04:01:57.778Z,2076.00
2019-06-01T04:02:57.683Z,2108.00
2019-06-01T04:03:57.592Z,2136.00
2019-06-01T04:04:57.496Z,2164.00
2019-06-01T04:05:57.521Z,2200.00
2019-06-01T04:06:57.304Z,2232.00
2019-06-01T04:07:57.213Z,2272.00
2019-06-01T04:08:57.118Z,2312.00
2019-06-01T04:09:57.023Z,2348.00
2019-06-01T04:10:56.940Z,2372.00
2019-06-01T04:11:56.849Z,2420.00
2019-06-01T04:12:56.844Z,2508.00
2019-06-01T04:13:56.648Z,2632.00
2019-06-01T04:14:56.553Z,2708.00
2019-06-01T04:15:56.462Z,2584.00
2019-06-01T04:16:56.380Z,2584.00
2019-06-01T04:17:56.273Z,2608.00
2019-06-01T04:18:56.210Z,2632.00
2019-06-01T04:19:56.264Z,2656.00
2019-06-01T04:20:55.990Z,2684.00
2019-06-01T04:21:55.913Z,2712.00
2019-06-01T04:22:55.803Z,2740.00
2019-06-01T04:23:55.717Z,2768.00
2019-06-01T04:24:55.614Z,2792.00
2019-06-01T04:25:55.654Z,2876.00
2019-06-01T04:26:55.561Z,2876.00
2019-06-01T04:27:55.333Z,2900.00
2019-06-01T04:28:55.240Z,3028.00
2019-06-01T04:29:55.147Z,3180.00
2019-06-01T04:30:55.055Z,3308.00
2019-06-01T04:31:54.974Z,3200.00
2019-06-01T04:32:54.866Z,3316.00
2019-06-01T04:33:55.038Z,3480.00
2019-06-01T04:34:54.677Z,3332.00
2019-06-01T04:35:54.588Z,3616.00
2019-06-01T04:36:54.505Z,3888.00
2019-06-01T04:37:54.403Z,3196.00
2019-06-01T04:38:54.310Z,3112.00
2019-06-01T04:39:54.214Z,3120.00
2019-06-01T04:40:54.223Z,3120.00
2019-06-01T04:41:54.039Z,3176.00
2019-06-01T04:42:53.930Z,3772.00
2019-06-01T04:43:53.838Z,3696.00
2019-06-01T04:44:53.757Z,3300.00
2019-06-01T04:45:53.651Z,3596.00
2019-06-01T04:46:53.560Z,4556.00
2019-06-01T04:47:53.591Z,6536.00
2019-06-01T04:48:53.373Z,5064.00
2019-06-01T04:49:53.281Z,6000.00
2019-06-01T04:50:53.185Z,9744.00
2019-06-01T04:51:53.095Z,9448.00
2019-06-01T04:52:53.012Z,5140.00
2019-06-01T04:53:53.032Z,3856.00
2019-06-01T04:54:52.812Z,3868.00
2019-06-01T04:55:52.726Z,3752.00
2019-06-01T04:56:52.628Z,4860.00
2019-06-01T04:57:52.551Z,4656.00
2019-06-01T04:58:52.444Z,3724.00
2019-06-01T04:59:52.354Z,3836.00
2019-06-01T05:00:52.257Z,3936.00
2019-06-01T05:01:52.282Z,4004.00
2019-06-01T05:03:04.421Z,3968.00
2019-06-01T05:03:51.982Z,3880.00
2019-06-01T05:04:51.892Z,4000.00
2019-06-01T05:05:51.796Z,4116.00
2019-06-01T05:06:51.705Z,3912.00
2019-06-01T05:07:51.625Z,3860.00
2019-06-01T05:08:51.519Z,3976.00
2019-06-01T05:09:51.428Z,3972.00
2019-06-01T05:10:51.336Z,3976.00
2019-06-01T05:11:51.243Z,4024.00
2019-06-01T05:12:51.166Z,4208.00
2019-06-01T05:13:51.059Z,4180.00
2019-06-01T05:14:50.967Z,4088.00
2019-06-01T05:15:50.883Z,4156.00
2019-06-01T05:16:50.816Z,4116.00
2019-06-01T05:17:50.705Z,4132.00
2019-06-01T05:18:50.597Z,4140.00
2019-06-01T05:19:50.512Z,4180.00
2019-06-01T05:20:50.413Z,4232.00
2019-06-01T05:21:50.327Z,4540.00
2019-06-01T05:22:50.242Z,4664.00
2019-06-01T05:23:50.137Z,4412.00
2019-06-01T05:24:50.045Z,4400.00
2019-06-01T05:25:53.162Z,4448.00
2019-06-01T05:26:49.859Z,4416.00
2019-06-01T05:27:49.780Z,4528.00
2019-06-01T05:28:49.674Z,4624.00
2019-06-01T05:29:49.582Z,4588.00
2019-06-01T05:30:49.491Z,4884.00
2019-06-01T05:31:49.399Z,5216.00
2019-06-01T05:32:49.326Z,4852.00
2019-06-01T05:33:49.214Z,4716.00
2019-06-01T05:34:49.125Z,4680.00
2019-06-01T05:35:49.031Z,4732.00
2019-06-01T05:36:48.972Z,4708.00
2019-06-01T05:37:48.859Z,4808.00
2019-06-01T05:38:48.760Z,5152.00
2019-06-01T05:39:48.666Z,5412.00
2019-06-01T05:40:48.568Z,5572.00
2019-06-01T05:41:48.489Z,5348.00
2019-06-01T05:42:48.389Z,4912.00
2019-06-01T05:43:48.323Z,5072.00
2019-06-01T05:44:48.210Z,5172.00
2019-06-01T05:45:48.110Z,5152.00
2019-06-01T05:46:48.021Z,5020.00
2019-06-01T05:47:47.928Z,4888.00
2019-06-01T05:48:47.850Z,4920.00
2019-06-01T05:49:47.745Z,5068.00
2019-06-01T05:50:47.654Z,4988.00
2019-06-01T05:51:47.561Z,5484.00
2019-06-01T05:52:47.469Z,5472.00
2019-06-01T05:53:47.392Z,5020.00
2019-06-01T05:54:47.287Z,5268.00
2019-06-01T05:55:47.198Z,5144.00
2019-06-01T05:56:47.102Z,5040.00
2019-06-01T05:57:47.012Z,5032.00
2019-06-01T05:58:46.951Z,5072.00
2019-06-01T05:59:46.830Z,5640.00
2019-06-01T06:00:46.747Z,5676.00
2019-06-01T06:01:46.646Z,5384.00
2019-06-01T06:02:46.669Z,5360.00
2019-06-01T06:03:46.479Z,5604.00
2019-06-01T06:04:46.373Z,6148.00
2019-06-01T06:05:46.282Z,6144.00
2019-06-01T06:06:46.192Z,5692.00
2019-06-01T06:07:46.101Z,6320.00
2019-06-01T06:08:46.029Z,8232.00
2019-06-01T06:09:45.923Z,7628.00
2019-06-01T06:10:45.827Z,5840.00
2019-06-01T06:11:45.740Z,5720.00
2019-06-01T06:12:45.647Z,5500.00
2019-06-01T06:13:45.579Z,5420.00
2019-06-01T06:14:45.467Z,5452.00
2019-06-01T06:15:45.376Z,5488.00
2019-06-01T06:16:45.408Z,5520.00
2019-06-01T06:17:45.195Z,5564.00
2019-06-01T06:18:45.124Z,5864.00
2019-06-01T06:19:45.023Z,6124.00
2019-06-01T06:20:44.925Z,6056.00
2019-06-01T06:21:44.834Z,5928.00
2019-06-01T06:22:44.754Z,5860.00
2019-06-01T06:23:44.655Z,5860.00
2019-06-01T06:24:44.658Z,5908.00
2019-06-01T06:25:44.474Z,5968.00
2019-06-01T06:26:44.389Z,6028.00
2019-06-01T06:27:44.300Z,6212.00
2019-06-01T06:28:44.216Z,6352.00
2019-06-01T06:29:44.114Z,7168.00
2019-06-01T06:30:44.023Z,7260.00
2019-06-01T06:31:43.939Z,6916.00
2019-06-01T06:32:43.844Z,7304.00
2019-06-01T06:33:55.915Z,8144.00
2019-06-01T06:34:43.680Z,11728.00
2019-06-01T06:35:43.574Z,14108.00
2019-06-01T06:36:43.488Z,15664.00
2019-06-01T06:37:43.393Z,17188.00
2019-06-01T06:38:43.306Z,22080.00
2019-06-01T06:39:43.229Z,32064.00
2019-06-01T06:40:43.130Z,37120.00
2019-06-01T06:41:43.034Z,37664.00
2019-06-01T06:42:42.945Z,38048.00
2019-06-01T06:43:42.961Z,39008.00
2019-06-01T06:44:42.779Z,40288.00
2019-06-01T06:45:42.676Z,42528.00
2019-06-01T06:46:42.593Z,43744.00
2019-06-01T06:47:42.501Z,42240.00
2019-06-01T06:48:42.411Z,40416.00
2019-06-01T06:49:42.340Z,39008.00
2019-06-01T06:50:42.343Z,38912.00
2019-06-01T06:51:42.155Z,38752.00
2019-06-01T06:52:42.057Z,36416.00
2019-06-01T06:53:41.971Z,19584.00
2019-06-01T06:54:41.915Z,9048.00
2019-06-01T06:55:41.799Z,37792.00
2019-06-01T06:56:41.716Z,37664.00
2019-06-01T06:57:41.740Z,37920.00
2019-06-01T06:58:41.539Z,39200.00
2019-06-01T06:59:41.468Z,40928.00
2019-06-01T07:00:41.369Z,42880.00
2019-06-01T07:01:41.279Z,45184.00
2019-06-01T07:02:41.232Z,49120.00
2019-06-01T07:03:41.110Z,23520.00
2019-06-01T07:04:41.145Z,56640.00
2019-06-01T07:05:40.945Z,51776.00
2019-06-01T07:06:40.854Z,48192.00
2019-06-01T07:07:40.770Z,51232.00
2019-06-01T07:08:40.697Z,56064.00
2019-06-01T07:09:40.618Z,60640.00
2019-06-01T07:10:40.527Z,60928.00
2019-06-01T07:11:40.541Z,57984.00
2019-06-01T07:12:40.363Z,60384.00
2019-06-01T07:13:40.271Z,60992.00
2019-06-01T07:14:40.212Z,60384.00
2019-06-01T07:15:40.103Z,64288.00
2019-06-01T07:16:40.012Z,65856.00
2019-06-01T07:17:39.948Z,66048.00
2019-06-01T07:18:39.958Z,65344.00
2019-06-01T07:19:39.786Z,67104.00
2019-06-01T07:20:39.697Z,68608.00
2019-06-01T07:21:39.607Z,65120.00
2019-06-01T07:22:39.530Z,69984.00
2019-06-01T07:23:39.502Z,71168.00
2019-06-01T07:24:39.364Z,74400.00
2019-06-01T07:25:39.419Z,76608.00
2019-06-01T07:26:39.205Z,80480.00
2019-06-01T07:27:39.127Z,87552.00
2019-06-01T07:28:39.025Z,89184.00
2019-06-01T07:29:38.950Z,87424.00
2019-06-01T07:30:49.755Z,82240.00
2019-06-01T07:31:38.779Z,27520.00
2019-06-01T07:32:38.801Z,75520.00
2019-06-01T07:33:38.616Z,76800.00
2019-06-01T07:34:42.089Z,66720.00
2019-06-01T07:35:38.471Z,41408.00
2019-06-01T07:36:38.371Z,84704.00
2019-06-01T07:37:38.294Z,19968.00
2019-06-01T07:38:38.213Z,86368.00
2019-06-01T07:39:38.233Z,74208.00
2019-06-01T07:40:38.062Z,18880.00
2019-06-01T07:41:37.967Z,20608.00
2019-06-01T07:42:37.886Z,82912.00
2019-06-01T07:43:37.806Z,27456.00
2019-06-01T07:44:37.734Z,14628.00
2019-06-01T07:45:37.681Z,16040.00
2019-06-01T07:46:37.747Z,16404.00
2019-06-01T07:47:37.483Z,72704.00
2019-06-01T07:48:37.405Z,12592.00
2019-06-01T07:49:37.323Z,13124.00
2019-06-01T07:50:37.252Z,13344.00
2019-06-01T07:51:37.157Z,54112.00
2019-06-01T07:52:37.073Z,75232.00
2019-06-01T07:53:36.992Z,80256.00
2019-06-01T07:54:36.911Z,84832.00
2019-06-01T07:55:36.845Z,90656.00
2019-06-01T07:56:36.749Z,84352.00
2019-06-01T07:57:36.668Z,82816.00
2019-06-01T07:58:36.585Z,82240.00
2019-06-01T07:59:36.506Z,88128.00
2019-06-01T08:00:36.435Z,90304.00
2019-06-01T08:01:36.339Z,91776.00
2019-06-01T08:02:36.258Z,90304.00
2019-06-01T08:03:36.177Z,64832.00
2019-06-01T08:04:52.889Z,33376.00
2019-06-01T08:05:36.027Z,57312.00
2019-06-01T08:06:35.936Z,89440.00
2019-06-01T08:07:35.850Z,87552.00
2019-06-01T08:08:35.767Z,22240.00
2019-06-01T08:09:35.688Z,17056.00
2019-06-01T08:10:35.620Z,15240.00
2019-06-01T08:11:35.536Z,12572.00
2019-06-01T08:12:35.441Z,12284.00
2019-06-01T08:13:35.961Z,13044.00
2019-06-01T08:14:35.282Z,18656.00
2019-06-01T08:15:35.217Z,15780.00
2019-06-01T08:16:35.118Z,13940.00
2019-06-01T08:17:35.036Z,14740.00
2019-06-01T08:18:34.965Z,15348.00
2019-06-01T08:19:34.872Z,14716.00
2019-06-01T08:20:34.801Z,14024.00
2019-06-01T08:21:34.805Z,12636.00
2019-06-01T08:22:34.625Z,12164.00
2019-06-01T08:23:34.543Z,11928.00
2019-06-01T08:24:34.460Z,30272.00
2019-06-01T08:25:34.382Z,79968.00
2019-06-01T08:26:34.310Z,84384.00
2019-06-01T08:27:34.215Z,83328.00
2019-06-01T08:28:34.137Z,85024.00
2019-06-01T08:29:34.044Z,82304.00
2019-06-01T08:30:33.964Z,84800.00
2019-06-01T08:31:33.893Z,86432.00
2019-06-01T08:32:33.795Z,81504.00
2019-06-01T08:33:35.084Z,76160.00
2019-06-01T08:34:33.630Z,72928.00
2019-06-01T08:35:33.547Z,73440.00
2019-06-01T08:36:33.909Z,79136.00
2019-06-01T08:37:33.663Z,78688.00
2019-06-01T08:38:33.820Z,78944.00
2019-06-01T08:39:34.211Z,81600.00
2019-06-01T08:40:33.517Z,81088.00
2019-06-01T08:41:33.710Z,76704.00
2019-06-01T08:42:33.735Z,76192.00
2019-06-01T08:43:33.911Z,78976.00
2019-06-01T08:44:33.752Z,80384.00
2019-06-01T08:45:36.124Z,83488.00
2019-06-01T08:46:33.919Z,90688.00
2019-06-01T08:47:33.936Z,32096.00
2019-06-01T08:48:32.476Z,89856.00
2019-06-01T08:49:32.567Z,92608.00
2019-06-01T08:50:32.316Z,59840.00
2019-06-01T08:51:32.235Z,92416.00
2019-06-01T08:52:32.286Z,74624.00
2019-06-01T08:53:32.221Z,90464.00
2019-06-01T08:54:32.313Z,17888.00
2019-06-01T08:55:32.338Z,16436.00
2019-06-01T08:56:32.319Z,15616.00
2019-06-01T08:57:32.427Z,15296.00
2019-06-01T08:58:32.494Z,14700.00
2019-06-01T08:59:32.555Z,87936.00
2019-06-01T09:00:32.629Z,15032.00
2019-06-01T09:01:32.668Z,16184.00
2019-06-01T09:02:32.548Z,22720.00
2019-06-01T09:03:31.871Z,89280.00
2019-06-01T09:04:31.183Z,90816.00
2019-06-01T09:05:31.550Z,92256.00
2019-06-01T09:06:31.027Z,101568.00
2019-06-01T09:07:31.092Z,106432.00
2019-06-01T09:08:30.934Z,107712.00
2019-06-01T09:09:31.025Z,114880.00
2019-06-01T09:10:31.426Z,110528.00
2019-06-01T09:11:31.148Z,104928.00
2019-06-01T09:12:31.381Z,99744.00
2019-06-01T09:13:31.254Z,101920.00
2019-06-01T09:14:31.343Z,98784.00
2019-06-01T09:15:31.443Z,106976.00
2019-06-01T09:16:31.541Z,103968.00
2019-06-01T09:17:31.417Z,106240.00
2019-06-01T09:18:31.248Z,105664.00
2019-06-01T09:19:29.969Z,104576.00
2019-06-01T09:20:34.026Z,104960.00
2019-06-01T09:21:29.808Z,82624.00
2019-06-01T09:22:29.741Z,46592.00
2019-06-01T09:23:29.646Z,104352.00
2019-06-01T09:24:29.786Z,99264.00
2019-06-01T09:25:29.645Z,101920.00
2019-06-01T09:26:29.727Z,17472.00
2019-06-01T09:27:29.749Z,15392.00
2019-06-01T09:28:29.885Z,14632.00
2019-06-01T09:29:30.048Z,14372.00
2019-06-01T09:30:29.885Z,14268.00
2019-06-01T09:31:30.364Z,14452.00
2019-06-01T09:32:30.037Z,72064.00
2019-06-01T09:33:30.058Z,85280.00
2019-06-01T09:34:28.771Z,17080.00
2019-06-01T09:35:49.943Z,16180.00
2019-06-01T09:36:28.604Z,15344.00
2019-06-01T09:37:28.537Z,15176.00
2019-06-01T09:38:29.576Z,100160.00
2019-06-01T09:39:29.065Z,100576.00
2019-06-01T09:40:30.037Z,101600.00
2019-06-01T09:41:28.378Z,103328.00
2019-06-01T09:42:28.783Z,106112.00
2019-06-01T09:43:28.618Z,103456.00
2019-06-01T09:44:28.819Z,103264.00
2019-06-01T09:45:27.952Z,106304.00
2019-06-01T09:46:28.823Z,109472.00
2019-06-01T09:47:28.959Z,96896.00
2019-06-01T09:48:27.649Z,92416.00
2019-06-01T09:49:27.553Z,94432.00
2019-06-01T09:50:27.471Z,83296.00
2019-06-01T09:51:27.510Z,96064.00
2019-06-01T09:52:27.453Z,108512.00
2019-06-01T09:53:28.917Z,117728.00
2019-06-01T09:54:27.349Z,121856.00
2019-06-01T09:55:27.501Z,19840.00
2019-06-01T09:56:29.124Z,16892.00
2019-06-01T09:57:27.689Z,15928.00
2019-06-01T09:58:28.065Z,15916.00
2019-06-01T09:59:27.716Z,15232.00
2019-06-01T10:00:26.665Z,14880.00
2019-06-01T10:01:28.015Z,14472.00
2019-06-01T10:02:27.912Z,14952.00
2019-06-01T10:03:26.443Z,14984.00
2019-06-01T10:04:26.355Z,15016.00
2019-06-01T10:05:26.264Z,14384.00
2019-06-01T10:06:26.186Z,16716.00
2019-06-01T10:07:26.103Z,58784.00
2019-06-01T10:08:26.038Z,87840.00
2019-06-01T10:09:25.939Z,94528.00
2019-06-01T10:10:25.858Z,96064.00
2019-06-01T10:11:25.779Z,86144.00
2019-06-01T10:12:25.697Z,88384.00
2019-06-01T10:13:25.632Z,86976.00
2019-06-01T10:14:25.568Z,81984.00
2019-06-01T10:15:25.453Z,79808.00
2019-06-01T10:16:25.405Z,80544.00
2019-06-01T10:17:25.303Z,79936.00
2019-06-01T10:18:27.018Z,15876.00
2019-06-01T10:19:25.236Z,15108.00
2019-06-01T10:20:25.051Z,41696.00
2019-06-01T10:21:24.972Z,71520.00
2019-06-01T10:22:24.887Z,61440.00
2019-06-01T10:23:24.825Z,77184.00
2019-06-01T10:24:24.807Z,16536.00
2019-06-01T10:25:24.646Z,37696.00
2019-06-01T10:26:24.677Z,93632.00
2019-06-01T10:27:24.495Z,28224.00
2019-06-01T10:28:24.419Z,93056.00
2019-06-01T10:29:24.326Z,88160.00
2019-06-01T10:30:24.245Z,94656.00
2019-06-01T10:31:24.165Z,93792.00
2019-06-01T10:32:24.084Z,90176.00
2019-06-01T10:33:24.127Z,92672.00
2019-06-01T10:34:23.930Z,95584.00
2019-06-01T10:35:23.846Z,97888.00
2019-06-01T10:36:23.768Z,97248.00
2019-06-01T10:37:23.685Z,102656.00
2019-06-01T10:38:23.621Z,86976.00
2019-06-01T10:39:23.527Z,97344.00
2019-06-01T10:40:23.658Z,107264.00
2019-06-01T10:41:23.368Z,112192.00
2019-06-01T10:42:23.296Z,96448.00
2019-06-01T10:43:23.224Z,97632.00
2019-06-01T10:44:23.131Z,94240.00
2019-06-01T10:45:23.056Z,84736.00
2019-06-01T10:46:22.971Z,82464.00
2019-06-01T10:47:22.992Z,82560.00
2019-06-01T10:48:22.827Z,85088.00
2019-06-01T10:49:22.734Z,85696.00
2019-06-01T10:50:22.662Z,91808.00
2019-06-01T10:51:22.576Z,14720.00
2019-06-01T10:52:22.499Z,20704.00
2019-06-01T10:53:22.432Z,101504.00
2019-06-01T10:54:22.341Z,97792.00
2019-06-01T10:55:22.262Z,92288.00
2019-06-01T10:56:22.182Z,74336.00
2019-06-01T10:57:22.105Z,62880.00
2019-06-01T10:58:22.040Z,20064.00
2019-06-01T10:59:21.946Z,14636.00
2019-06-01T11:00:37.132Z,13584.00
2019-06-01T11:01:21.796Z,13468.00
2019-06-01T11:02:21.709Z,14040.00
2019-06-01T11:03:21.645Z,18592.00
2019-06-01T11:04:21.556Z,27520.00
2019-06-01T11:05:21.472Z,77792.00
2019-06-01T11:06:36.186Z,72512.00
2019-06-01T11:07:21.314Z,82528.00
2019-06-01T11:08:21.235Z,86208.00
2019-06-01T11:09:21.172Z,85408.00
2019-06-01T11:10:21.074Z,85344.00
2019-06-01T11:11:20.994Z,92960.00
2019-06-01T11:12:20.915Z,98592.00
2019-06-01T11:13:20.853Z,105248.00
2019-06-01T11:14:20.856Z,102496.00
2019-06-01T11:15:20.675Z,105344.00
2019-06-01T11:16:20.595Z,116160.00
2019-06-01T11:17:20.516Z,110304.00
2019-06-01T11:18:20.440Z,104960.00
2019-06-01T11:19:20.375Z,92800.00
2019-06-01T11:20:20.278Z,90752.00
2019-06-01T11:21:20.318Z,89632.00
2019-06-01T11:22:20.121Z,96160.00
2019-06-01T11:23:20.041Z,99040.00
2019-06-01T11:24:19.976Z,108224.00
2019-06-01T11:25:19.951Z,27872.00
2019-06-01T11:26:19.806Z,21760.00
2019-06-01T11:27:19.726Z,35936.00
2019-06-01T11:28:19.646Z,31776.00
2019-06-01T11:29:19.585Z,36832.00
2019-06-01T11:30:19.492Z,110656.00
2019-06-01T11:31:19.408Z,108608.00
2019-06-01T11:32:19.331Z,97440.00
2019-06-01T11:33:19.251Z,90464.00
2019-06-01T11:34:19.293Z,93376.00
2019-06-01T11:35:19.093Z,94528.00
2019-06-01T11:36:19.015Z,93984.00
2019-06-01T11:37:18.936Z,86432.00
2019-06-01T11:38:18.856Z,99328.00
2019-06-01T11:39:18.798Z,100992.00
2019-06-01T11:40:18.711Z,94784.00
2019-06-01T11:41:18.918Z,88352.00
2019-06-01T11:42:19.996Z,84384.00
2019-06-01T11:43:18.461Z,80992.00
2019-06-01T11:44:18.415Z,71520.00
2019-06-01T11:45:18.308Z,69376.00
2019-06-01T11:46:18.227Z,86592.00
2019-06-01T11:47:18.279Z,88416.00
2019-06-01T11:48:18.068Z,85760.00
2019-06-01T11:49:20.978Z,91776.00
2019-06-01T11:50:17.912Z,92832.00
2019-06-01T11:51:17.834Z,69312.00
2019-06-01T11:52:17.753Z,95840.00
2019-06-01T11:53:17.696Z,97792.00
2019-06-01T11:54:17.610Z,93792.00
2019-06-01T11:55:17.610Z,85184.00
2019-06-01T11:56:17.439Z,29472.00
2019-06-01T11:57:17.361Z,27968.00
2019-06-01T11:58:17.283Z,44192.00
2019-06-01T11:59:17.222Z,31712.00
2019-06-01T12:00:17.128Z,52128.00
2019-06-01T12:01:17.048Z,59584.00
2019-06-01T12:02:16.975Z,65056.00
2019-06-01T12:03:16.915Z,59040.00
2019-06-01T12:04:16.824Z,60960.00
2019-06-01T12:05:16.731Z,72960.00
2019-06-01T12:06:16.652Z,86144.00
2019-06-01T12:07:18.135Z,87872.00
2019-06-01T12:08:16.493Z,90400.00
2019-06-01T12:09:16.527Z,95040.00